sensor_id;sensor_type;location;lat;lon;timestamp;P1;durP1;ratioP1;P2;durP2;ratioP2
38332;SDS011;25748;46.670;14.272;2022-11-20T00:00:52;2.47;;;1.73;;
38332;SDS011;25748;46.670;14.272;2022-11-20T00:03:18;4.60;;;1.75;;
38332;SDS011;25748;46.670;14.272;2022-11-20T00:05:44;4.45;;;1.95;;
38332;SDS011;25748;46.670;14.272;2022-11-20T00:08:10;4.32;;;1.55;;
38332;SDS011;25748;46.670;14.272;2022-11-20T00:10:36;3.28;;;1.45;;
38332;SDS011;25748;46.670;14.272;2022-11-20T00:13:03;4.18;;;1.40;;
38332;SDS011;25748;46.670;14.272;2022-11-20T00:15:28;3.28;;;1.58;;
38332;SDS011;25748;46.670;14.272;2022-11-20T00:17:54;3.60;;;1.50;;
38332;SDS011;25748;46.670;14.272;2022-11-20T00:20:20;2.92;;;1.38;;
38332;SDS011;25748;46.670;14.272;2022-11-20T00:22:46;3.13;;;1.58;;
38332;SDS011;25748;46.670;14.272;2022-11-20T00:25:12;3.35;;;1.40;;
38332;SDS011;25748;46.670;14.272;2022-11-20T00:27:38;2.75;;;1.20;;
38332;SDS011;25748;46.670;14.272;2022-11-20T00:30:04;2.58;;;1.55;;
38332;SDS011;25748;46.670;14.272;2022-11-20T00:32:30;5.53;;;1.30;;
38332;SDS011;25748;46.670;14.272;2022-11-20T00:34:56;3.65;;;1.30;;
38332;SDS011;25748;46.670;14.272;2022-11-20T00:37:21;4.05;;;1.50;;
38332;SDS011;25748;46.670;14.272;2022-11-20T00:39:47;2.70;;;1.13;;
38332;SDS011;25748;46.670;14.272;2022-11-20T00:42:13;3.63;;;1.30;;
38332;SDS011;25748;46.670;14.272;2022-11-20T00:44:38;3.85;;;1.63;;
38332;SDS011;25748;46.670;14.272;2022-11-20T00:47:04;4.40;;;2.08;;
38332;SDS011;25748;46.670;14.272;2022-11-20T00:49:30;3.83;;;1.67;;
38332;SDS011;25748;46.670;14.272;2022-11-20T00:51:55;3.80;;;1.55;;
38332;SDS011;25748;46.670;14.272;2022-11-20T00:54:21;7.80;;;1.60;;
38332;SDS011;25748;46.670;14.272;2022-11-20T00:56:47;3.47;;;1.65;;
38332;SDS011;25748;46.670;14.272;2022-11-20T00:59:12;5.10;;;2.35;;
38332;SDS011;25748;46.670;14.272;2022-11-20T01:01:38;3.53;;;1.98;;
38332;SDS011;25748;46.670;14.272;2022-11-20T01:04:04;3.72;;;1.50;;
38332;SDS011;25748;46.670;14.272;2022-11-20T01:06:30;4.18;;;1.40;;
38332;SDS011;25748;46.670;14.272;2022-11-20T01:09:02;3.22;;;1.95;;
38332;SDS011;25748;46.670;14.272;2022-11-20T01:11:33;4.20;;;1.63;;
38332;SDS011;25748;46.670;14.272;2022-11-20T01:14:01;2.20;;;1.17;;
38332;SDS011;25748;46.670;14.272;2022-11-20T01:16:29;3.85;;;1.35;;
38332;SDS011;25748;46.670;14.272;2022-11-20T01:18:58;2.63;;;1.67;;
38332;SDS011;25748;46.670;14.272;2022-11-20T01:23:52;3.05;;;1.58;;
38332;SDS011;25748;46.670;14.272;2022-11-20T01:26:19;2.92;;;1.40;;
38332;SDS011;25748;46.670;14.272;2022-11-20T01:28:47;2.97;;;1.50;;
38332;SDS011;25748;46.670;14.272;2022-11-20T01:31:18;3.72;;;1.20;;
38332;SDS011;25748;46.670;14.272;2022-11-20T01:33:49;2.90;;;1.38;;
38332;SDS011;25748;46.670;14.272;2022-11-20T01:36:18;5.43;;;1.60;;
38332;SDS011;25748;46.670;14.272;2022-11-20T01:38:46;5.07;;;1.40;;
38332;SDS011;25748;46.670;14.272;2022-11-20T01:41:12;2.67;;;1.30;;
38332;SDS011;25748;46.670;14.272;2022-11-20T01:43:58;7.95;;;1.40;;
38332;SDS011;25748;46.670;14.272;2022-11-20T01:46:24;2.33;;;1.00;;
38332;SDS011;25748;46.670;14.272;2022-11-20T01:49:11;3.05;;;1.40;;
38332;SDS011;25748;46.670;14.272;2022-11-20T01:54:46;2.15;;;1.00;;
38332;SDS011;25748;46.670;14.272;2022-11-20T01:57:13;2.63;;;1.48;;
38332;SDS011;25748;46.670;14.272;2022-11-20T01:59:43;2.05;;;1.20;;
38332;SDS011;25748;46.670;14.272;2022-11-20T02:02:13;2.03;;;1.00;;
38332;SDS011;25748;46.670;14.272;2022-11-20T02:04:39;7.95;;;1.30;;
38332;SDS011;25748;46.670;14.272;2022-11-20T02:07:05;2.05;;;1.08;;
38332;SDS011;25748;46.670;14.272;2022-11-20T02:09:32;3.63;;;1.27;;
38332;SDS011;25748;46.670;14.272;2022-11-20T02:11:57;1.90;;;1.20;;
38332;SDS011;25748;46.670;14.272;2022-11-20T02:14:24;2.65;;;1.13;;
38332;SDS011;25748;46.670;14.272;2022-11-20T02:16:51;3.63;;;1.33;;
38332;SDS011;25748;46.670;14.272;2022-11-20T02:19:26;2.63;;;1.27;;
38332;SDS011;25748;46.670;14.272;2022-11-20T02:24:50;1.98;;;1.00;;
38332;SDS011;25748;46.670;14.272;2022-11-20T02:27:16;3.63;;;1.40;;
38332;SDS011;25748;46.670;14.272;2022-11-20T02:29:53;3.03;;;1.10;;
38332;SDS011;25748;46.670;14.272;2022-11-20T02:32:29;1.95;;;1.10;;
38332;SDS011;25748;46.670;14.272;2022-11-20T02:34:57;1.70;;;0.90;;
38332;SDS011;25748;46.670;14.272;2022-11-20T02:37:25;3.85;;;1.42;;
38332;SDS011;25748;46.670;14.272;2022-11-20T02:39:56;3.78;;;1.45;;
38332;SDS011;25748;46.670;14.272;2022-11-20T02:42:22;3.13;;;1.23;;
38332;SDS011;25748;46.670;14.272;2022-11-20T02:44:48;5.00;;;1.30;;
38332;SDS011;25748;46.670;14.272;2022-11-20T02:47:13;4.30;;;1.45;;
38332;SDS011;25748;46.670;14.272;2022-11-20T02:49:39;2.88;;;1.25;;
38332;SDS011;25748;46.670;14.272;2022-11-20T02:52:04;1.92;;;0.93;;
38332;SDS011;25748;46.670;14.272;2022-11-20T02:54:30;2.75;;;1.52;;
38332;SDS011;25748;46.670;14.272;2022-11-20T02:56:56;1.15;;;0.80;;
38332;SDS011;25748;46.670;14.272;2022-11-20T02:59:21;2.58;;;1.55;;
38332;SDS011;25748;46.670;14.272;2022-11-20T03:01:47;2.92;;;1.55;;
38332;SDS011;25748;46.670;14.272;2022-11-20T03:04:13;4.15;;;1.83;;
38332;SDS011;25748;46.670;14.272;2022-11-20T03:06:38;2.92;;;1.35;;
38332;SDS011;25748;46.670;14.272;2022-11-20T03:09:04;6.70;;;1.85;;
38332;SDS011;25748;46.670;14.272;2022-11-20T03:11:30;4.10;;;1.77;;
38332;SDS011;25748;46.670;14.272;2022-11-20T03:13:56;2.22;;;1.52;;
38332;SDS011;25748;46.670;14.272;2022-11-20T03:16:22;3.45;;;1.45;;
38332;SDS011;25748;46.670;14.272;2022-11-20T03:18:48;3.03;;;1.35;;
38332;SDS011;25748;46.670;14.272;2022-11-20T03:21:14;2.30;;;1.08;;
38332;SDS011;25748;46.670;14.272;2022-11-20T03:23:41;5.57;;;1.42;;
38332;SDS011;25748;46.670;14.272;2022-11-20T03:28:47;2.10;;;1.20;;
38332;SDS011;25748;46.670;14.272;2022-11-20T03:31:21;2.58;;;1.10;;
38332;SDS011;25748;46.670;14.272;2022-11-20T03:33:48;3.53;;;1.38;;
38332;SDS011;25748;46.670;14.272;2022-11-20T03:36:15;4.45;;;1.48;;
38332;SDS011;25748;46.670;14.272;2022-11-20T03:38:41;3.20;;;1.20;;
38332;SDS011;25748;46.670;14.272;2022-11-20T03:41:08;2.67;;;0.88;;
38332;SDS011;25748;46.670;14.272;2022-11-20T03:43:36;1.63;;;0.75;;
38332;SDS011;25748;46.670;14.272;2022-11-20T03:46:02;2.15;;;0.93;;
38332;SDS011;25748;46.670;14.272;2022-11-20T03:48:28;2.50;;;1.13;;
38332;SDS011;25748;46.670;14.272;2022-11-20T03:51:13;3.60;;;1.08;;
38332;SDS011;25748;46.670;14.272;2022-11-20T03:53:42;3.03;;;0.80;;
38332;SDS011;25748;46.670;14.272;2022-11-20T03:56:09;2.00;;;0.73;;
38332;SDS011;25748;46.670;14.272;2022-11-20T03:58:36;2.05;;;0.85;;
38332;SDS011;25748;46.670;14.272;2022-11-20T04:01:07;1.13;;;0.70;;
38332;SDS011;25748;46.670;14.272;2022-11-20T04:03:35;1.80;;;0.85;;
38332;SDS011;25748;46.670;14.272;2022-11-20T04:06:02;1.60;;;0.50;;
38332;SDS011;25748;46.670;14.272;2022-11-20T04:08:32;0.80;;;0.52;;
38332;SDS011;25748;46.670;14.272;2022-11-20T04:11:08;1.85;;;0.40;;
38332;SDS011;25748;46.670;14.272;2022-11-20T04:13:34;0.63;;;0.40;;
38332;SDS011;25748;46.670;14.272;2022-11-20T04:16:00;0.85;;;0.35;;
38332;SDS011;25748;46.670;14.272;2022-11-20T04:18:26;0.85;;;0.50;;
38332;SDS011;25748;46.670;14.272;2022-11-20T04:20:51;0.98;;;0.40;;
38332;SDS011;25748;46.670;14.272;2022-11-20T04:23:17;0.65;;;0.40;;
38332;SDS011;25748;46.670;14.272;2022-11-20T04:25:42;1.20;;;0.45;;
38332;SDS011;25748;46.670;14.272;2022-11-20T04:28:08;0.90;;;0.30;;
38332;SDS011;25748;46.670;14.272;2022-11-20T04:30:34;1.15;;;0.50;;
38332;SDS011;25748;46.670;14.272;2022-11-20T04:32:59;1.15;;;0.45;;
38332;SDS011;25748;46.670;14.272;2022-11-20T04:35:25;0.80;;;0.60;;
38332;SDS011;25748;46.670;14.272;2022-11-20T04:37:51;4.05;;;0.60;;
38332;SDS011;25748;46.670;14.272;2022-11-20T04:40:17;0.52;;;0.38;;
38332;SDS011;25748;46.670;14.272;2022-11-20T04:42:43;0.90;;;0.40;;
38332;SDS011;25748;46.670;14.272;2022-11-20T04:45:09;1.98;;;0.52;;
38332;SDS011;25748;46.670;14.272;2022-11-20T04:47:34;0.90;;;0.40;;
38332;SDS011;25748;46.670;14.272;2022-11-20T04:50:00;0.55;;;0.40;;
38332;SDS011;25748;46.670;14.272;2022-11-20T04:52:26;0.85;;;0.40;;
38332;SDS011;25748;46.670;14.272;2022-11-20T04:54:51;0.85;;;0.40;;
38332;SDS011;25748;46.670;14.272;2022-11-20T04:57:18;0.77;;;0.43;;
38332;SDS011;25748;46.670;14.272;2022-11-20T04:59:44;0.80;;;0.32;;
38332;SDS011;25748;46.670;14.272;2022-11-20T05:02:10;0.90;;;0.45;;
38332;SDS011;25748;46.670;14.272;2022-11-20T05:04:35;0.93;;;0.50;;
38332;SDS011;25748;46.670;14.272;2022-11-20T05:07:01;1.10;;;0.47;;
38332;SDS011;25748;46.670;14.272;2022-11-20T05:09:27;0.80;;;0.40;;
38332;SDS011;25748;46.670;14.272;2022-11-20T05:11:53;1.13;;;0.57;;
38332;SDS011;25748;46.670;14.272;2022-11-20T05:14:18;0.93;;;0.65;;
38332;SDS011;25748;46.670;14.272;2022-11-20T05:16:44;0.80;;;0.47;;
38332;SDS011;25748;46.670;14.272;2022-11-20T05:19:10;1.67;;;0.52;;
38332;SDS011;25748;46.670;14.272;2022-11-20T05:21:35;1.80;;;0.65;;
38332;SDS011;25748;46.670;14.272;2022-11-20T05:24:01;0.77;;;0.40;;
38332;SDS011;25748;46.670;14.272;2022-11-20T05:26:27;4.32;;;0.52;;
38332;SDS011;25748;46.670;14.272;2022-11-20T05:28:52;1.90;;;0.75;;
38332;SDS011;25748;46.670;14.272;2022-11-20T05:31:19;0.60;;;0.40;;
38332;SDS011;25748;46.670;14.272;2022-11-20T05:33:46;1.25;;;0.60;;
38332;SDS011;25748;46.670;14.272;2022-11-20T05:36:13;2.60;;;0.80;;
38332;SDS011;25748;46.670;14.272;2022-11-20T05:38:39;2.40;;;0.40;;
38332;SDS011;25748;46.670;14.272;2022-11-20T05:41:16;2.50;;;0.80;;
38332;SDS011;25748;46.670;14.272;2022-11-20T05:43:43;1.13;;;0.80;;
38332;SDS011;25748;46.670;14.272;2022-11-20T05:46:11;1.20;;;0.63;;
38332;SDS011;25748;46.670;14.272;2022-11-20T05:48:39;2.97;;;0.63;;
38332;SDS011;25748;46.670;14.272;2022-11-20T05:51:08;1.88;;;0.90;;
38332;SDS011;25748;46.670;14.272;2022-11-20T05:53:35;1.77;;;0.80;;
38332;SDS011;25748;46.670;14.272;2022-11-20T05:56:05;0.93;;;0.60;;
38332;SDS011;25748;46.670;14.272;2022-11-20T06:03:36;1.83;;;0.90;;
38332;SDS011;25748;46.670;14.272;2022-11-20T06:06:03;2.17;;;0.90;;
38332;SDS011;25748;46.670;14.272;2022-11-20T06:08:30;1.92;;;0.98;;
38332;SDS011;25748;46.670;14.272;2022-11-20T06:10:56;1.17;;;0.70;;
38332;SDS011;25748;46.670;14.272;2022-11-20T06:13:22;2.03;;;0.88;;
38332;SDS011;25748;46.670;14.272;2022-11-20T06:15:49;3.97;;;0.95;;
38332;SDS011;25748;46.670;14.272;2022-11-20T06:18:18;2.17;;;0.80;;
38332;SDS011;25748;46.670;14.272;2022-11-20T06:20:44;1.17;;;0.60;;
38332;SDS011;25748;46.670;14.272;2022-11-20T06:23:10;1.27;;;0.65;;
38332;SDS011;25748;46.670;14.272;2022-11-20T06:25:37;2.03;;;0.77;;
38332;SDS011;25748;46.670;14.272;2022-11-20T06:28:04;2.53;;;0.95;;
38332;SDS011;25748;46.670;14.272;2022-11-20T06:30:29;1.02;;;0.55;;
38332;SDS011;25748;46.670;14.272;2022-11-20T06:32:55;1.20;;;0.70;;
38332;SDS011;25748;46.670;14.272;2022-11-20T06:35:21;1.77;;;0.90;;
38332;SDS011;25748;46.670;14.272;2022-11-20T06:37:46;1.67;;;0.55;;
38332;SDS011;25748;46.670;14.272;2022-11-20T06:40:12;0.50;;;0.50;;
38332;SDS011;25748;46.670;14.272;2022-11-20T06:42:38;1.15;;;0.63;;
38332;SDS011;25748;46.670;14.272;2022-11-20T06:45:03;1.60;;;0.60;;
38332;SDS011;25748;46.670;14.272;2022-11-20T06:47:29;1.98;;;0.70;;
38332;SDS011;25748;46.670;14.272;2022-11-20T06:49:55;1.90;;;0.70;;
38332;SDS011;25748;46.670;14.272;2022-11-20T06:52:21;2.50;;;0.88;;
38332;SDS011;25748;46.670;14.272;2022-11-20T06:54:46;1.38;;;0.77;;
38332;SDS011;25748;46.670;14.272;2022-11-20T06:57:12;1.10;;;0.60;;
38332;SDS011;25748;46.670;14.272;2022-11-20T06:59:38;0.90;;;0.60;;
38332;SDS011;25748;46.670;14.272;2022-11-20T07:02:03;1.10;;;0.70;;
38332;SDS011;25748;46.670;14.272;2022-11-20T07:04:29;1.50;;;0.80;;
38332;SDS011;25748;46.670;14.272;2022-11-20T07:06:55;3.53;;;0.60;;
38332;SDS011;25748;46.670;14.272;2022-11-20T07:09:20;2.05;;;1.00;;
38332;SDS011;25748;46.670;14.272;2022-11-20T07:11:46;1.15;;;0.57;;
38332;SDS011;25748;46.670;14.272;2022-11-20T07:14:12;1.52;;;0.70;;
38332;SDS011;25748;46.670;14.272;2022-11-20T07:16:37;2.03;;;0.60;;
38332;SDS011;25748;46.670;14.272;2022-11-20T07:19:03;1.83;;;0.80;;
38332;SDS011;25748;46.670;14.272;2022-11-20T07:21:28;1.60;;;0.70;;
38332;SDS011;25748;46.670;14.272;2022-11-20T07:23:54;1.50;;;0.82;;
38332;SDS011;25748;46.670;14.272;2022-11-20T07:26:20;1.45;;;0.77;;
38332;SDS011;25748;46.670;14.272;2022-11-20T07:28:45;2.33;;;0.98;;
38332;SDS011;25748;46.670;14.272;2022-11-20T07:31:11;1.30;;;0.77;;
38332;SDS011;25748;46.670;14.272;2022-11-20T07:33:38;1.05;;;0.60;;
38332;SDS011;25748;46.670;14.272;2022-11-20T07:36:03;2.97;;;1.10;;
38332;SDS011;25748;46.670;14.272;2022-11-20T07:38:29;1.75;;;1.08;;
38332;SDS011;25748;46.670;14.272;2022-11-20T07:40:56;2.50;;;1.13;;
38332;SDS011;25748;46.670;14.272;2022-11-20T07:43:28;3.22;;;1.35;;
38332;SDS011;25748;46.670;14.272;2022-11-20T07:45:57;2.58;;;0.98;;
38332;SDS011;25748;46.670;14.272;2022-11-20T07:48:24;1.92;;;0.80;;
38332;SDS011;25748;46.670;14.272;2022-11-20T07:50:54;1.55;;;1.17;;
38332;SDS011;25748;46.670;14.272;2022-11-20T07:53:20;2.78;;;1.13;;
38332;SDS011;25748;46.670;14.272;2022-11-20T07:55:46;1.38;;;1.00;;
38332;SDS011;25748;46.670;14.272;2022-11-20T07:58:13;1.92;;;0.70;;
38332;SDS011;25748;46.670;14.272;2022-11-20T08:00:39;1.30;;;0.90;;
38332;SDS011;25748;46.670;14.272;2022-11-20T08:03:05;1.05;;;0.75;;
38332;SDS011;25748;46.670;14.272;2022-11-20T08:05:31;2.42;;;0.95;;
38332;SDS011;25748;46.670;14.272;2022-11-20T08:07:57;1.70;;;0.93;;
38332;SDS011;25748;46.670;14.272;2022-11-20T08:10:23;1.85;;;0.80;;
38332;SDS011;25748;46.670;14.272;2022-11-20T08:12:50;2.00;;;0.90;;
38332;SDS011;25748;46.670;14.272;2022-11-20T08:15:35;1.27;;;0.90;;
38332;SDS011;25748;46.670;14.272;2022-11-20T08:18:05;4.18;;;1.23;;
38332;SDS011;25748;46.670;14.272;2022-11-20T08:20:36;3.30;;;1.15;;
38332;SDS011;25748;46.670;14.272;2022-11-20T08:23:03;1.35;;;0.75;;
38332;SDS011;25748;46.670;14.272;2022-11-20T08:25:31;1.95;;;0.90;;
38332;SDS011;25748;46.670;14.272;2022-11-20T08:27:58;2.05;;;0.80;;
38332;SDS011;25748;46.670;14.272;2022-11-20T08:30:28;1.63;;;0.80;;
38332;SDS011;25748;46.670;14.272;2022-11-20T08:32:59;7.28;;;0.93;;
38332;SDS011;25748;46.670;14.272;2022-11-20T08:35:32;2.10;;;1.00;;
38332;SDS011;25748;46.670;14.272;2022-11-20T08:37:58;1.45;;;0.68;;
38332;SDS011;25748;46.670;14.272;2022-11-20T08:40:24;1.92;;;0.98;;
38332;SDS011;25748;46.670;14.272;2022-11-20T08:42:50;1.73;;;0.80;;
38332;SDS011;25748;46.670;14.272;2022-11-20T08:45:16;1.27;;;0.60;;
38332;SDS011;25748;46.670;14.272;2022-11-20T08:47:43;2.33;;;1.10;;
38332;SDS011;25748;46.670;14.272;2022-11-20T08:50:10;1.95;;;0.98;;
38332;SDS011;25748;46.670;14.272;2022-11-20T08:52:37;1.50;;;0.93;;
38332;SDS011;25748;46.670;14.272;2022-11-20T08:55:03;3.13;;;0.90;;
38332;SDS011;25748;46.670;14.272;2022-11-20T08:57:36;4.05;;;1.13;;
38332;SDS011;25748;46.670;14.272;2022-11-20T09:00:03;2.50;;;1.25;;
38332;SDS011;25748;46.670;14.272;2022-11-20T09:02:30;2.65;;;0.90;;
38332;SDS011;25748;46.670;14.272;2022-11-20T09:04:57;2.78;;;0.77;;
38332;SDS011;25748;46.670;14.272;2022-11-20T09:07:23;3.45;;;1.10;;
38332;SDS011;25748;46.670;14.272;2022-11-20T09:09:48;3.88;;;0.98;;
38332;SDS011;25748;46.670;14.272;2022-11-20T09:12:14;3.35;;;1.45;;
38332;SDS011;25748;46.670;14.272;2022-11-20T09:14:40;2.47;;;1.05;;
38332;SDS011;25748;46.670;14.272;2022-11-20T09:17:05;3.33;;;1.05;;
38332;SDS011;25748;46.670;14.272;2022-11-20T09:19:32;2.58;;;1.35;;
38332;SDS011;25748;46.670;14.272;2022-11-20T09:21:58;2.58;;;0.95;;
38332;SDS011;25748;46.670;14.272;2022-11-20T09:24:25;3.28;;;1.20;;
38332;SDS011;25748;46.670;14.272;2022-11-20T09:26:51;4.35;;;1.58;;
38332;SDS011;25748;46.670;14.272;2022-11-20T09:29:17;2.50;;;1.17;;
38332;SDS011;25748;46.670;14.272;2022-11-20T09:31:42;3.15;;;1.20;;
38332;SDS011;25748;46.670;14.272;2022-11-20T09:34:08;8.57;;;1.58;;
38332;SDS011;25748;46.670;14.272;2022-11-20T09:36:34;2.05;;;1.30;;
38332;SDS011;25748;46.670;14.272;2022-11-20T09:39:00;3.22;;;1.35;;
38332;SDS011;25748;46.670;14.272;2022-11-20T09:46:50;3.80;;;1.65;;
38332;SDS011;25748;46.670;14.272;2022-11-20T09:52:00;3.03;;;1.38;;
38332;SDS011;25748;46.670;14.272;2022-11-20T09:54:38;2.42;;;1.10;;
38332;SDS011;25748;46.670;14.272;2022-11-20T09:57:09;3.83;;;1.55;;
38332;SDS011;25748;46.670;14.272;2022-11-20T09:59:41;3.00;;;1.38;;
38332;SDS011;25748;46.670;14.272;2022-11-20T10:10:04;5.10;;;2.13;;
38332;SDS011;25748;46.670;14.272;2022-11-20T10:23:52;4.20;;;1.60;;
38332;SDS011;25748;46.670;14.272;2022-11-20T10:29:11;5.88;;;2.25;;
38332;SDS011;25748;46.670;14.272;2022-11-20T10:31:41;5.38;;;2.00;;
38332;SDS011;25748;46.670;14.272;2022-11-20T10:37:00;6.75;;;2.35;;
38332;SDS011;25748;46.670;14.272;2022-11-20T10:42:00;3.25;;;1.85;;
38332;SDS011;25748;46.670;14.272;2022-11-20T10:44:27;5.65;;;2.30;;
38332;SDS011;25748;46.670;14.272;2022-11-20T10:47:13;5.35;;;2.28;;
38332;SDS011;25748;46.670;14.272;2022-11-20T10:49:41;4.78;;;2.17;;
38332;SDS011;25748;46.670;14.272;2022-11-20T10:52:20;5.30;;;2.50;;
38332;SDS011;25748;46.670;14.272;2022-11-20T10:58:04;3.33;;;1.77;;
38332;SDS011;25748;46.670;14.272;2022-11-20T11:01:04;4.75;;;2.28;;
38332;SDS011;25748;46.670;14.272;2022-11-20T11:03:31;7.93;;;2.35;;
38332;SDS011;25748;46.670;14.272;2022-11-20T11:06:06;5.88;;;2.90;;
38332;SDS011;25748;46.670;14.272;2022-11-20T11:08:47;3.58;;;1.75;;
38332;SDS011;25748;46.670;14.272;2022-11-20T11:13:40;2.35;;;1.30;;
38332;SDS011;25748;46.670;14.272;2022-11-20T11:16:16;6.28;;;2.17;;
38332;SDS011;25748;46.670;14.272;2022-11-20T11:18:46;5.72;;;1.73;;
38332;SDS011;25748;46.670;14.272;2022-11-20T11:21:12;5.22;;;2.28;;
38332;SDS011;25748;46.670;14.272;2022-11-20T11:23:44;6.28;;;1.77;;
38332;SDS011;25748;46.670;14.272;2022-11-20T11:26:21;3.20;;;1.67;;
38332;SDS011;25748;46.670;14.272;2022-11-20T11:28:58;3.35;;;1.90;;
38332;SDS011;25748;46.670;14.272;2022-11-20T11:31:26;3.67;;;1.90;;
38332;SDS011;25748;46.670;14.272;2022-11-20T11:34:13;3.72;;;1.73;;
38332;SDS011;25748;46.670;14.272;2022-11-20T11:36:41;4.50;;;1.92;;
38332;SDS011;25748;46.670;14.272;2022-11-20T11:39:17;4.03;;;1.92;;
38332;SDS011;25748;46.670;14.272;2022-11-20T11:41:45;3.58;;;1.98;;
38332;SDS011;25748;46.670;14.272;2022-11-20T11:46:58;3.67;;;1.80;;
38332;SDS011;25748;46.670;14.272;2022-11-20T11:49:24;4.45;;;1.77;;
38332;SDS011;25748;46.670;14.272;2022-11-20T11:54:25;3.38;;;1.80;;
38332;SDS011;25748;46.670;14.272;2022-11-20T11:56:53;5.63;;;2.05;;
38332;SDS011;25748;46.670;14.272;2022-11-20T11:59:27;4.28;;;1.80;;
38332;SDS011;25748;46.670;14.272;2022-11-20T12:02:11;3.92;;;1.67;;
38332;SDS011;25748;46.670;14.272;2022-11-20T12:04:58;4.78;;;1.90;;
38332;SDS011;25748;46.670;14.272;2022-11-20T12:07:41;3.50;;;1.60;;
38332;SDS011;25748;46.670;14.272;2022-11-20T12:10:22;4.30;;;1.75;;
38332;SDS011;25748;46.670;14.272;2022-11-20T12:13:11;4.65;;;1.80;;
38332;SDS011;25748;46.670;14.272;2022-11-20T12:15:59;3.38;;;1.50;;
38332;SDS011;25748;46.670;14.272;2022-11-20T12:18:29;2.65;;;1.40;;
38332;SDS011;25748;46.670;14.272;2022-11-20T12:21:03;3.65;;;1.30;;
38332;SDS011;25748;46.670;14.272;2022-11-20T12:26:15;2.72;;;1.40;;
38332;SDS011;25748;46.670;14.272;2022-11-20T12:43:24;1.05;;;0.68;;
38332;SDS011;25748;46.670;14.272;2022-11-20T12:49:19;2.83;;;1.30;;
38332;SDS011;25748;46.670;14.272;2022-11-20T12:57:49;2.22;;;1.10;;
38332;SDS011;25748;46.670;14.272;2022-11-20T13:00:22;3.40;;;1.52;;
38332;SDS011;25748;46.670;14.272;2022-11-20T13:09:00;2.60;;;1.15;;
38332;SDS011;25748;46.670;14.272;2022-11-20T13:14:11;2.20;;;1.23;;
38332;SDS011;25748;46.670;14.272;2022-11-20T13:19:28;2.03;;;1.02;;
38332;SDS011;25748;46.670;14.272;2022-11-20T13:21:54;3.75;;;1.38;;
38332;SDS011;25748;46.670;14.272;2022-11-20T13:29:30;3.45;;;1.55;;
38332;SDS011;25748;46.670;14.272;2022-11-20T13:32:04;3.22;;;1.27;;
38332;SDS011;25748;46.670;14.272;2022-11-20T13:34:51;2.10;;;1.35;;
38332;SDS011;25748;46.670;14.272;2022-11-20T13:37:28;2.25;;;1.10;;
38332;SDS011;25748;46.670;14.272;2022-11-20T13:48:24;3.55;;;1.55;;
38332;SDS011;25748;46.670;14.272;2022-11-20T13:54:03;3.88;;;1.55;;
38332;SDS011;25748;46.670;14.272;2022-11-20T13:59:28;3.25;;;1.52;;
38332;SDS011;25748;46.670;14.272;2022-11-20T14:02:02;2.95;;;1.40;;
38332;SDS011;25748;46.670;14.272;2022-11-20T14:04:34;4.18;;;1.90;;
38332;SDS011;25748;46.670;14.272;2022-11-20T14:07:04;3.70;;;1.92;;
38332;SDS011;25748;46.670;14.272;2022-11-20T14:09:31;2.85;;;1.42;;
38332;SDS011;25748;46.670;14.272;2022-11-20T14:11:58;6.38;;;2.00;;
38332;SDS011;25748;46.670;14.272;2022-11-20T14:14:25;3.67;;;1.70;;
38332;SDS011;25748;46.670;14.272;2022-11-20T14:16:53;2.90;;;1.25;;
38332;SDS011;25748;46.670;14.272;2022-11-20T14:19:33;3.10;;;1.60;;
38332;SDS011;25748;46.670;14.272;2022-11-20T14:22:47;5.50;;;2.25;;
38332;SDS011;25748;46.670;14.272;2022-11-20T14:27:59;4.22;;;1.48;;
38332;SDS011;25748;46.670;14.272;2022-11-20T14:30:27;5.00;;;1.67;;
38332;SDS011;25748;46.670;14.272;2022-11-20T14:33:01;3.90;;;1.55;;
38332;SDS011;25748;46.670;14.272;2022-11-20T14:35:29;4.40;;;1.83;;
38332;SDS011;25748;46.670;14.272;2022-11-20T14:37:59;6.65;;;2.00;;
38332;SDS011;25748;46.670;14.272;2022-11-20T14:40:28;2.95;;;1.52;;
38332;SDS011;25748;46.670;14.272;2022-11-20T14:42:56;2.67;;;1.40;;
38332;SDS011;25748;46.670;14.272;2022-11-20T14:45:23;4.43;;;1.25;;
38332;SDS011;25748;46.670;14.272;2022-11-20T14:47:50;3.90;;;1.55;;
38332;SDS011;25748;46.670;14.272;2022-11-20T14:50:25;2.83;;;1.40;;
38332;SDS011;25748;46.670;14.272;2022-11-20T14:55:25;2.58;;;1.55;;
38332;SDS011;25748;46.670;14.272;2022-11-20T14:57:55;5.65;;;2.25;;
38332;SDS011;25748;46.670;14.272;2022-11-20T15:00:22;3.58;;;1.60;;
38332;SDS011;25748;46.670;14.272;2022-11-20T15:02:48;3.00;;;1.40;;
38332;SDS011;25748;46.670;14.272;2022-11-20T15:05:17;2.97;;;1.50;;
38332;SDS011;25748;46.670;14.272;2022-11-20T15:07:45;3.20;;;1.50;;
38332;SDS011;25748;46.670;14.272;2022-11-20T15:10:23;3.20;;;1.52;;
38332;SDS011;25748;46.670;14.272;2022-11-20T15:15:27;3.47;;;1.52;;
38332;SDS011;25748;46.670;14.272;2022-11-20T15:18:04;3.45;;;1.60;;
38332;SDS011;25748;46.670;14.272;2022-11-20T15:23:53;3.78;;;1.33;;
38332;SDS011;25748;46.670;14.272;2022-11-20T15:26:27;3.80;;;2.08;;
38332;SDS011;25748;46.670;14.272;2022-11-20T15:28:53;2.80;;;1.60;;
38332;SDS011;25748;46.670;14.272;2022-11-20T15:31:21;3.65;;;1.48;;
38332;SDS011;25748;46.670;14.272;2022-11-20T15:33:48;3.55;;;1.48;;
38332;SDS011;25748;46.670;14.272;2022-11-20T15:36:14;3.40;;;1.58;;
38332;SDS011;25748;46.670;14.272;2022-11-20T15:38:39;4.28;;;1.63;;
38332;SDS011;25748;46.670;14.272;2022-11-20T15:41:05;3.70;;;1.50;;
38332;SDS011;25748;46.670;14.272;2022-11-20T15:43:31;4.88;;;1.85;;
38332;SDS011;25748;46.670;14.272;2022-11-20T15:45:59;4.38;;;1.60;;
38332;SDS011;25748;46.670;14.272;2022-11-20T15:48:28;3.85;;;1.70;;
38332;SDS011;25748;46.670;14.272;2022-11-20T15:50:58;3.70;;;1.77;;
38332;SDS011;25748;46.670;14.272;2022-11-20T15:53:28;4.78;;;2.38;;
38332;SDS011;25748;46.670;14.272;2022-11-20T15:55:53;3.88;;;2.28;;
38332;SDS011;25748;46.670;14.272;2022-11-20T15:58:19;5.13;;;2.00;;
38332;SDS011;25748;46.670;14.272;2022-11-20T16:00:45;6.50;;;1.58;;
38332;SDS011;25748;46.670;14.272;2022-11-20T16:03:11;4.95;;;2.20;;
38332;SDS011;25748;46.670;14.272;2022-11-20T16:05:41;6.22;;;2.28;;
38332;SDS011;25748;46.670;14.272;2022-11-20T16:08:06;3.35;;;1.80;;
38332;SDS011;25748;46.670;14.272;2022-11-20T16:10:32;6.03;;;2.17;;
38332;SDS011;25748;46.670;14.272;2022-11-20T16:12:58;5.75;;;2.05;;
38332;SDS011;25748;46.670;14.272;2022-11-20T16:15:44;5.90;;;2.97;;
38332;SDS011;25748;46.670;14.272;2022-11-20T16:18:19;3.78;;;2.10;;
38332;SDS011;25748;46.670;14.272;2022-11-20T16:20:46;4.18;;;1.92;;
38332;SDS011;25748;46.670;14.272;2022-11-20T16:23:19;4.20;;;1.95;;
38332;SDS011;25748;46.670;14.272;2022-11-20T16:25:45;3.40;;;1.55;;
38332;SDS011;25748;46.670;14.272;2022-11-20T16:28:11;3.63;;;1.90;;
38332;SDS011;25748;46.670;14.272;2022-11-20T16:30:37;5.78;;;2.10;;
38332;SDS011;25748;46.670;14.272;2022-11-20T16:33:03;3.85;;;1.73;;
38332;SDS011;25748;46.670;14.272;2022-11-20T16:35:30;5.65;;;2.45;;
38332;SDS011;25748;46.670;14.272;2022-11-20T16:37:57;4.35;;;2.03;;
38332;SDS011;25748;46.670;14.272;2022-11-20T16:40:23;5.15;;;2.53;;
38332;SDS011;25748;46.670;14.272;2022-11-20T16:42:49;3.33;;;1.55;;
38332;SDS011;25748;46.670;14.272;2022-11-20T16:45:15;3.00;;;1.58;;
38332;SDS011;25748;46.670;14.272;2022-11-20T16:47:41;2.72;;;1.52;;
38332;SDS011;25748;46.670;14.272;2022-11-20T16:50:07;5.63;;;1.80;;
38332;SDS011;25748;46.670;14.272;2022-11-20T16:52:33;6.10;;;1.65;;